Monte Rio, CA (95462)

4:03 PM PDT on April 23, 2017 (GMT -0700)
The Terraces, Monte Rio | | Change Station

Elev 36 ft 38.47 °N, 123.01 °W | Updated 33 seconds ago

Clear
Clear
61.7 °F
Feels Like 61.7 °F
N
0.0
Wind Variable Wind from ESE
Gusts 4.0 mph

Today
High -- | Low -- °F
--% Chance of Precip.
Yesterday
High -- | Low -- °F
Precip. -- in
Pressure 29.93 in
Visibility 10.0 miles
Clouds Few 6000 ft
Scattered Clouds 25000 ft
Dew Point 52 °F
Humidity 71%
Rainfall 0.00 in
Snow Depth Not available.
6:24 AM 7:56 PM
Waning Crescent, 9% visible
METAR KSTS 232253Z 25014G20KT 10SM FEW060 SCT250 21/09 A2994 RMK AO2 SLP133 T02060089
Pressure 29.93 in
Visibility 10.0 miles
Clouds Few 6000 ft
Scattered Clouds 25000 ft
Dew Point 52 °F
Humidity 71%
Rainfall 0.00 in
Snow Depth Not available.
6:24 AM 7:56 PM
Waning Crescent, 9% visible
METAR KSTS 232253Z 25014G20KT 10SM FEW060 SCT250 21/09 A2994 RMK AO2 SLP133 T02060089

Get Severe Weather Alerts

Thanks for signing up!

Be on the lookout for a verification email in your inbox.

You'll start receiving the daily forecast at 8 AM.

×

10-Day Weather Forecast

Almanac

Astronomy

Apr. 23, 2017 Rise Set
Actual Time
Civil Twilight
Nautical Twilight
Astronomical Twilight
Moon
Length of Visible Light
Length of Day
Tomorrow will be .
, % of the Moon is Illuminated

Today's Extremes

State Highs State Lows

Community

WunderPhotos

WunderBlog® & News

Nearby

Air Quality

  Air Quality AQ Index Pollutant
Not available.

Snow Depth

Station Depth Elevation

Earthquake Activity

City Distance Mag. Time & Date
Minimum magnitude displayed is 2.5.

Coastal Water Temperatures

Place Temperature

Stations

Nearby Weather Stations

Station Location Temp. Windchill Dew Point Humidity Wind Precip. Elev Updated Type
                   

Watches & Warnings

There are currently no watches in effect.